Time,TemperatureF,DewpointF,PressureIn,WindDirection,WindDirectionDegrees,WindSpeedMPH,WindSpeedGustMPH,Humidity,HourlyPrecipIn,Conditions,Clouds,dailyrainin,SoftwareType,DateUTC
2013-02-07 01:52:00,22.0,2.0,-100.00,WNW,295,3.0,5.0,40,-99.99,,,-99.99,,2013-02-07 06:52:00,
2013-02-07 02:02:00,22.0,3.0,-100.00,NNW,330,3.0,7.0,42,-99.99,,,-99.99,,2013-02-07 07:02:00,
2013-02-07 02:32:00,22.0,2.0,-100.00,NNW,345,3.0,8.0,42,-99.99,,,-99.99,,2013-02-07 07:32:00,
2013-02-07 03:02:00,22.0,2.0,-100.00,NW,305,5.0,8.0,41,-99.99,,,-99.99,,2013-02-07 08:02:00,
2013-02-07 03:11:00,21.0,2.0,-100.00,NW,325,2.0,7.0,42,-99.99,,,-99.99,,2013-02-07 08:11:00,
2013-02-07 03:22:00,21.0,2.0,-100.00,North,5,2.0,6.0,43,-99.99,,,-99.99,,2013-02-07 08:22:00,
2013-02-07 03:32:00,20.0,3.0,-100.00,SW,225,1.0,3.0,47,-99.99,,,-99.99,,2013-02-07 08:32:00,
2013-02-07 03:42:00,19.0,4.0,-100.00,NW,315,0.0,1.0,50,-99.99,,,-99.99,,2013-02-07 08:42:00,
2013-02-07 04:11:00,18.0,4.0,-100.00,WSW,240,1.0,2.0,53,-99.99,,,-99.99,,2013-02-07 09:11:00,
2013-02-07 04:22:00,18.0,3.0,-100.00,ENE,75,1.0,2.0,52,-99.99,,,-99.99,,2013-02-07 09:22:00,
2013-02-07 04:30:00,16.0,3.0,-100.00,SSW,210,0.0,1.0,55,-99.99,,,-99.99,,2013-02-07 09:30:00,
2013-02-07 04:32:00,18.0,3.0,-100.00,East,90,1.0,2.0,51,-99.99,,,-99.99,,2013-02-07 09:32:00,
2013-02-07 04:42:00,18.0,3.0,-100.00,East,90,1.0,2.0,51,-99.99,,,-99.99,,2013-02-07 09:42:00,
2013-02-07 04:52:00,17.0,3.0,-100.00,West,270,0.0,2.0,55,-99.99,,,-99.99,,2013-02-07 09:52:00,
2013-02-07 05:02:00,17.0,3.0,-100.00,West,270,0.0,2.0,55,-99.99,,,-99.99,,2013-02-07 10:02:00,
2013-02-07 05:11:00,16.0,3.0,-100.00,SSW,210,0.0,1.0,55,-99.99,,,-99.99,,2013-02-07 10:11:00,
2013-02-07 05:22:00,16.0,3.0,-100.00,SSW,210,0.0,1.0,55,-99.99,,,-99.99,,2013-02-07 10:22:00,
2013-02-07 05:42:00,15.0,4.0,-100.00,South,190,2.0,2.0,61,-99.99,,,-99.99,,2013-02-07 10:42:00,
2013-02-07 05:52:00,15.0,4.0,-100.00,South,190,2.0,2.0,61,-99.99,,,-99.99,,2013-02-07 10:52:00,
2013-02-07 06:23:00,15.0,4.0,-100.00,WSW,255,0.0,1.0,61,-99.99,,,-99.99,,2013-02-07 11:23:00,
2013-02-07 06:32:00,15.0,4.0,-100.00,WSW,255,0.0,1.0,61,-99.99,,,-99.99,,2013-02-07 11:32:00,
2013-02-07 06:44:00,14.0,4.0,-100.00,West,260,0.0,1.0,63,-99.99,,,-99.99,,2013-02-07 11:44:00,
2013-02-07 06:53:00,15.0,3.0,-100.00,WNW,300,1.0,3.0,60,-99.99,,,-99.99,,2013-02-07 11:53:00,
2013-02-07 07:22:00,14.0,4.0,-100.00,SW,220,1.0,2.0,62,-99.99,,,-99.99,,2013-02-07 12:22:00,
2013-02-07 07:33:00,14.0,4.0,-100.00,SSE,160,1.0,5.0,63,-99.99,,,-99.99,,2013-02-07 12:33:00,
2013-02-07 07:42:00,14.0,3.0,-100.00,South,190,1.0,2.0,63,-99.99,,,-99.99,,2013-02-07 12:42:00,
2013-02-07 07:53:00,14.0,3.0,-100.00,SW,225,1.0,2.0,63,-99.99,,,-99.99,,2013-02-07 12:53:00,
2013-02-07 08:42:00,18.0,3.0,-100.00,NW,315,3.0,7.0,51,-99.99,,,-99.99,,2013-02-07 13:42:00,
2013-02-07 08:52:00,18.0,0.0,-100.00,NW,315,5.0,9.0,44,-99.99,,,-99.99,,2013-02-07 13:52:00,
2013-02-07 09:02:00,19.0,0.0,-100.00,WNW,300,7.0,9.0,42,-99.99,,,-99.99,,2013-02-07 14:02:00,
2013-02-07 09:12:00,19.0,0.0,-100.00,WNW,300,6.0,10.0,42,-99.99,,,-99.99,,2013-02-07 14:12:00,
2013-02-07 09:22:00,19.0,-1.0,-100.00,WNW,295,8.0,13.0,40,-99.99,,,-99.99,,2013-02-07 14:22:00,
2013-02-07 09:32:00,20.0,-1.0,-100.00,NW,315,7.0,10.0,39,-99.99,,,-99.99,,2013-02-07 14:32:00,
2013-02-07 09:42:00,21.0,-1.0,-100.00,NNW,335,7.0,15.0,37,-99.99,,,-99.99,,2013-02-07 14:42:00,
2013-02-07 09:52:00,22.0,-1.0,-100.00,NW,320,8.0,16.0,36,-99.99,,,-99.99,,2013-02-07 14:52:00,
2013-02-07 10:22:00,22.0,-2.0,-100.00,North,350,10.0,16.0,34,-99.99,,,-99.99,,2013-02-07 15:22:00,
2013-02-07 10:30:00,23.0,-2.0,-100.00,NNW,345,7.0,13.0,32,-99.99,,,-99.99,,2013-02-07 15:30:00,
2013-02-07 10:32:00,23.0,-1.0,-100.00,NNW,335,13.0,17.0,34,-99.99,,,-99.99,,2013-02-07 15:32:00,
2013-02-07 11:11:00,23.0,-2.0,-100.00,NNW,345,7.0,13.0,32,-99.99,,,-99.99,,2013-02-07 16:11:00,
2013-02-07 11:22:00,23.0,-2.0,-100.00,NNW,345,7.0,13.0,32,-99.99,,,-99.99,,2013-02-07 16:22:00,
2013-02-07 12:32:00,25.0,-2.0,-100.00,NNW,340,8.0,14.0,30,-99.99,,,-99.99,,2013-02-07 17:32:00,
2013-02-07 12:43:00,26.0,-1.0,-100.00,NW,320,7.0,14.0,30,-99.99,,,-99.99,,2013-02-07 17:43:00,
2013-02-07 12:52:00,26.0,-2.0,-100.00,North,10,12.0,16.0,29,-99.99,,,-99.99,,2013-02-07 17:52:00,
2013-02-07 13:02:00,26.0,-2.0,-100.00,NNW,340,8.0,15.0,29,-99.99,,,-99.99,,2013-02-07 18:02:00,
2013-02-07 13:12:00,26.0,-2.0,-100.00,NW,325,9.0,14.0,29,-99.99,,,-99.99,,2013-02-07 18:12:00,
2013-02-07 13:23:00,26.0,-2.0,-100.00,NNW,335,7.0,17.0,29,-99.99,,,-99.99,,2013-02-07 18:23:00,
2013-02-07 13:32:00,26.0,-2.0,-100.00,NNW,345,7.0,13.0,28,-99.99,,,-99.99,,2013-02-07 18:32:00,
2013-02-07 13:42:00,26.0,-2.0,-100.00,NNW,340,7.0,13.0,28,-99.99,,,-99.99,,2013-02-07 18:42:00,
2013-02-07 13:52:00,27.0,-3.0,-100.00,NW,310,7.0,12.0,27,-99.99,,,-99.99,,2013-02-07 18:52:00,
2013-02-07 14:02:00,27.0,-3.0,-100.00,North,0,6.0,10.0,27,-99.99,,,-99.99,,2013-02-07 19:02:00,
2013-02-07 14:22:00,29.0,-2.0,-100.00,NNE,25,3.0,10.0,26,-99.99,,,-99.99,,2013-02-07 19:22:00,
2013-02-07 14:32:00,28.0,-2.0,-100.00,NNW,340,7.0,15.0,27,-99.99,,,-99.99,,2013-02-07 19:32:00,
2013-02-07 14:42:00,28.0,-3.0,-100.00,North,350,5.0,12.0,26,-99.99,,,-99.99,,2013-02-07 19:42:00,
2013-02-07 14:52:00,28.0,-3.0,-100.00,North,10,7.0,10.0,26,-99.99,,,-99.99,,2013-02-07 19:52:00,
2013-02-07 15:01:00,28.0,-3.0,-100.00,North,5,10.0,15.0,26,-99.99,,,-99.99,,2013-02-07 20:01:00,
2013-02-07 15:11:00,28.0,-3.0,-100.00,NW,305,3.0,12.0,26,-99.99,,,-99.99,,2013-02-07 20:11:00,
2013-02-07 15:22:00,28.0,-3.0,-100.00,North,0,3.0,8.0,26,-99.99,,,-99.99,,2013-02-07 20:22:00,
2013-02-07 15:32:00,28.0,-2.0,-100.00,NW,320,2.0,8.0,26,-99.99,,,-99.99,,2013-02-07 20:32:00,
2013-02-07 16:32:00,28.0,-1.0,-100.00,NE,40,3.0,7.0,28,-99.99,,,-99.99,,2013-02-07 21:32:00,
2013-02-07 17:30:00,26.0,-2.0,-100.00,ENE,60,1.0,5.0,29,-99.99,,,-99.99,,2013-02-07 22:30:00,
2013-02-07 18:11:00,26.0,-2.0,-100.00,ENE,60,1.0,5.0,29,-99.99,,,-99.99,,2013-02-07 23:11:00,
2013-02-07 18:22:00,26.0,-2.0,-100.00,ENE,60,1.0,5.0,29,-99.99,,,-99.99,,2013-02-07 23:22:00,
2013-02-07 18:42:00,26.0,-1.0,-100.00,NW,315,1.0,6.0,30,-99.99,,,-99.99,,2013-02-07 23:42:00,
2013-02-07 18:52:00,26.0,-1.0,-100.00,East,90,5.0,7.0,30,-99.99,,,-99.99,,2013-02-07 23:52:00,
2013-02-07 19:11:00,26.0,-1.0,-100.00,East,90,2.0,6.0,30,-99.99,,,-99.99,,2013-02-08 00:11:00,
2013-02-07 19:22:00,26.0,-2.0,-100.00,East,100,2.0,7.0,29,-99.99,,,-99.99,,2013-02-08 00:22:00,
2013-02-07 19:42:00,26.0,-1.0,-100.00,East,95,2.0,6.0,30,-99.99,,,-99.99,,2013-02-08 00:42:00,
2013-02-07 19:52:00,25.0,-2.0,-100.00,East,95,3.0,7.0,30,-99.99,,,-99.99,,2013-02-08 00:52:00,
2013-02-07 20:02:00,25.0,-3.0,-100.00,East,90,6.0,10.0,28,-99.99,,,-99.99,,2013-02-08 01:02:00,
2013-02-07 20:32:00,24.0,-3.0,-100.00,East,95,3.0,6.0,29,-99.99,,,-99.99,,2013-02-08 01:32:00,
2013-02-07 20:42:00,24.0,-3.0,-100.00,East,95,3.0,6.0,29,-99.99,,,-99.99,,2013-02-08 01:42:00,
2013-02-07 20:51:00,24.0,-4.0,-100.00,ESE,105,3.0,7.0,29,-99.99,,,-99.99,,2013-02-08 01:51:00,
2013-02-07 21:01:00,24.0,-3.0,-100.00,East,90,6.0,8.0,29,-99.99,,,-99.99,,2013-02-08 02:01:00,
2013-02-07 21:11:00,24.0,-3.0,-100.00,ESE,105,5.0,7.0,29,-99.99,,,-99.99,,2013-02-08 02:11:00,
2013-02-07 21:22:00,24.0,-2.0,-100.00,ESE,105,3.0,7.0,31,-99.99,,,-99.99,,2013-02-08 02:22:00,
2013-02-07 21:32:00,24.0,-1.0,-100.00,ESE,105,3.0,5.0,32,-99.99,,,-99.99,,2013-02-08 02:32:00,
2013-02-07 21:42:00,24.0,-1.0,-100.00,East,95,2.0,7.0,32,-99.99,,,-99.99,,2013-02-08 02:42:00,
2013-02-07 21:52:00,24.0,-1.0,-100.00,East,80,2.0,5.0,32,-99.99,,,-99.99,,2013-02-08 02:52:00,
2013-02-07 22:02:00,24.0,-1.0,-100.00,ENE,75,2.0,7.0,32,-99.99,,,-99.99,,2013-02-08 03:02:00,
2013-02-07 22:22:00,24.0,-1.0,-100.00,East,85,3.0,7.0,32,-99.99,,,-99.99,,2013-02-08 03:22:00,
2013-02-07 22:30:00,24.0,0.0,-100.00,East,90,2.0,5.0,34,-99.99,,,-99.99,,2013-02-08 03:30:00,
2013-02-07 23:11:00,24.0,0.0,-100.00,East,90,2.0,5.0,34,-99.99,,,-99.99,,2013-02-08 04:11:00,
2013-02-07 23:20:00,25.0,2.0,-100.00,WSW,250,1.0,2.0,37,-99.99,,,-99.99,,2013-02-08 04:20:00,
2013-02-07 23:21:00,24.0,0.0,-100.00,East,90,2.0,5.0,34,-99.99,,,-99.99,,2013-02-08 04:21:00,
2013-02-07 23:42:00,25.0,2.0,-100.00,East,85,2.0,3.0,36,-99.99,,,-99.99,,2013-02-08 04:42:00,
2013-02-07 23:52:00,25.0,2.0,-100.00,East,85,2.0,3.0,36,-99.99,,,-99.99,,2013-02-08 04:52:00,